createdAt,value
2016-10-16T00:00:11.971Z,9.92
2016-10-16T00:00:33.690Z,9.96
2016-10-16T00:00:55.411Z,9.96
2016-10-16T00:01:17.136Z,9.96
2016-10-16T00:01:38.852Z,9.94
2016-10-16T00:02:00.620Z,9.95
2016-10-16T00:02:25.050Z,9.94
2016-10-16T00:02:46.815Z,9.97
2016-10-16T00:03:08.531Z,10.01
2016-10-16T00:03:30.246Z,10.05
2016-10-16T00:03:51.966Z,10.04
2016-10-16T00:04:13.684Z,10.06
2016-10-16T00:04:35.400Z,10.04
2016-10-16T00:04:57.115Z,9.98
2016-10-16T00:05:18.832Z,9.95
2016-10-16T00:05:40.552Z,9.93
2016-10-16T00:06:02.278Z,9.91
2016-10-16T00:06:23.998Z,9.94
2016-10-16T00:06:45.707Z,9.94
2016-10-16T00:07:07.427Z,9.93
2016-10-16T00:07:29.148Z,9.93
2016-10-16T00:07:50.947Z,9.88
2016-10-16T00:08:12.666Z,9.88
2016-10-16T00:08:34.390Z,9.92
2016-10-16T00:08:56.118Z,9.91
2016-10-16T00:09:17.835Z,9.88
2016-10-16T00:09:39.558Z,9.88
2016-10-16T00:10:01.274Z,9.87
2016-10-16T00:10:23.045Z,9.86
2016-10-16T00:10:44.764Z,9.87
2016-10-16T00:11:06.481Z,9.88
2016-10-16T00:11:28.200Z,9.87
2016-10-16T00:11:49.920Z,9.85
2016-10-16T00:12:11.644Z,9.87
2016-10-16T00:12:33.360Z,9.93
2016-10-16T00:12:55.160Z,9.93
2016-10-16T00:13:16.872Z,9.93
2016-10-16T00:13:38.589Z,9.93
2016-10-16T00:14:00.319Z,9.93
2016-10-16T00:14:22.039Z,9.85
2016-10-16T00:14:43.752Z,9.81
2016-10-16T00:15:05.472Z,9.81
2016-10-16T00:15:27.265Z,9.81
2016-10-16T00:15:48.984Z,9.82
2016-10-16T00:16:10.704Z,9.91
2016-10-16T00:16:32.424Z,9.99
2016-10-16T00:16:54.151Z,9.99
2016-10-16T00:17:15.878Z,9.94
2016-10-16T00:17:37.594Z,9.85
2016-10-16T00:17:59.311Z,9.81
2016-10-16T00:18:21.031Z,9.77
2016-10-16T00:18:42.754Z,9.74
2016-10-16T00:19:04.469Z,9.70
2016-10-16T00:19:26.188Z,9.72
2016-10-16T00:19:47.904Z,9.75
2016-10-16T00:20:09.623Z,9.77
2016-10-16T00:20:31.426Z,9.80
2016-10-16T00:20:53.146Z,9.82
2016-10-16T00:21:14.878Z,9.82
2016-10-16T00:21:36.597Z,9.82
2016-10-16T00:21:58.315Z,9.81
2016-10-16T00:22:20.038Z,9.86
2016-10-16T00:22:41.755Z,9.87
2016-10-16T00:23:03.472Z,9.94
2016-10-16T00:23:25.192Z,9.95
2016-10-16T00:23:46.907Z,9.96
2016-10-16T00:24:08.622Z,9.96
2016-10-16T00:24:30.336Z,9.96
2016-10-16T00:24:52.062Z,9.90
2016-10-16T00:25:13.777Z,9.91
2016-10-16T00:25:35.542Z,10.00
2016-10-16T00:25:57.264Z,10.02
2016-10-16T00:26:18.990Z,10.07
2016-10-16T00:26:40.706Z,10.01
2016-10-16T00:27:02.537Z,9.93
2016-10-16T00:27:24.258Z,9.94
2016-10-16T00:27:45.980Z,9.86
2016-10-16T00:28:07.701Z,9.80
2016-10-16T00:28:29.488Z,9.72
2016-10-16T00:28:51.209Z,9.65
2016-10-16T00:29:12.923Z,9.60
2016-10-16T00:29:34.638Z,9.50
2016-10-16T00:29:56.357Z,9.43
2016-10-16T00:30:18.074Z,9.37
2016-10-16T00:30:39.793Z,9.38
2016-10-16T00:31:01.506Z,9.43
2016-10-16T00:31:23.226Z,9.42
2016-10-16T00:31:44.947Z,9.38
2016-10-16T00:32:06.666Z,9.36
2016-10-16T00:32:28.395Z,9.35
2016-10-16T00:32:50.111Z,9.31
2016-10-16T00:33:11.859Z,9.30
2016-10-16T00:33:38.358Z,9.46
2016-10-16T00:34:00.084Z,9.56
2016-10-16T00:34:21.789Z,9.53
2016-10-16T00:34:43.509Z,9.50
2016-10-16T00:35:05.242Z,9.49
2016-10-16T00:35:26.950Z,9.48
2016-10-16T00:35:48.670Z,9.46
2016-10-16T00:36:10.400Z,9.47
2016-10-16T00:36:32.120Z,9.53
2016-10-16T00:36:53.838Z,9.62
2016-10-16T00:37:15.568Z,9.58
2016-10-16T00:37:37.279Z,9.45
2016-10-16T00:37:59.004Z,9.38
2016-10-16T00:38:20.718Z,9.31
2016-10-16T00:38:42.438Z,9.33
2016-10-16T00:39:04.153Z,9.40
2016-10-16T00:39:25.871Z,9.45
2016-10-16T00:39:47.586Z,9.54
2016-10-16T00:40:09.381Z,9.60
2016-10-16T00:40:31.095Z,9.66
2016-10-16T00:40:52.817Z,9.53
2016-10-16T00:41:14.531Z,9.42
2016-10-16T00:41:36.265Z,9.27
2016-10-16T00:41:57.981Z,9.08
2016-10-16T00:42:19.702Z,8.98
2016-10-16T00:42:41.421Z,8.96
2016-10-16T00:43:03.134Z,8.90
2016-10-16T00:43:24.864Z,8.89
2016-10-16T00:43:46.577Z,8.85
2016-10-16T00:44:08.309Z,8.89
2016-10-16T00:44:30.029Z,8.94
2016-10-16T00:44:51.748Z,9.02
2016-10-16T00:45:13.471Z,9.03
2016-10-16T00:45:35.184Z,9.03
2016-10-16T00:45:56.909Z,9.05
2016-10-16T00:46:18.645Z,9.02
2016-10-16T00:46:40.377Z,9.05
2016-10-16T00:47:02.098Z,9.22
2016-10-16T00:47:23.814Z,9.33
2016-10-16T00:47:45.530Z,9.37
2016-10-16T00:48:07.252Z,9.45
2016-10-16T00:48:28.964Z,9.45
2016-10-16T00:48:50.685Z,9.40
2016-10-16T00:49:12.424Z,9.26
2016-10-16T00:49:34.138Z,9.18
2016-10-16T00:49:55.851Z,9.17
2016-10-16T00:50:17.570Z,9.18
2016-10-16T00:50:39.298Z,9.21
2016-10-16T00:51:01.014Z,9.24
2016-10-16T00:51:22.728Z,9.28
2016-10-16T00:51:44.453Z,9.35
2016-10-16T00:52:06.174Z,9.29
2016-10-16T00:52:27.897Z,9.30
2016-10-16T00:52:49.614Z,9.33
2016-10-16T00:53:11.327Z,9.35
2016-10-16T00:53:33.058Z,9.34
2016-10-16T00:53:54.778Z,9.31
2016-10-16T00:54:16.535Z,9.28
2016-10-16T00:54:38.253Z,9.29
2016-10-16T00:54:59.969Z,9.28
2016-10-16T00:55:21.686Z,9.28
2016-10-16T00:55:43.405Z,9.29
2016-10-16T00:56:05.135Z,9.30
2016-10-16T00:56:26.849Z,9.30
2016-10-16T00:56:48.574Z,9.30
2016-10-16T00:57:10.312Z,9.34
2016-10-16T00:57:32.038Z,9.37
2016-10-16T00:57:53.759Z,9.36
2016-10-16T00:58:15.476Z,9.31
2016-10-16T00:58:37.193Z,9.36
2016-10-16T00:58:58.917Z,9.38
2016-10-16T00:59:20.635Z,9.37
2016-10-16T00:59:42.363Z,9.37
2016-10-16T01:00:04.105Z,9.29
2016-10-16T01:00:25.898Z,9.30
2016-10-16T01:00:47.616Z,9.26
2016-10-16T01:01:09.335Z,9.22
2016-10-16T01:01:31.052Z,9.17
2016-10-16T01:01:52.776Z,9.14
2016-10-16T01:02:14.492Z,9.13
2016-10-16T01:02:36.213Z,9.17
2016-10-16T01:02:58.004Z,9.30
2016-10-16T01:03:19.724Z,9.45
2016-10-16T01:03:41.440Z,9.58
2016-10-16T01:04:03.164Z,9.49
2016-10-16T01:04:24.873Z,9.43
2016-10-16T01:04:46.599Z,9.37
2016-10-16T01:05:08.319Z,9.45
2016-10-16T01:05:30.039Z,9.47
2016-10-16T01:05:51.767Z,9.42
2016-10-16T01:06:13.493Z,9.39
2016-10-16T01:06:35.211Z,9.39
2016-10-16T01:06:56.926Z,9.43
2016-10-16T01:07:18.644Z,9.43
2016-10-16T01:07:40.359Z,9.40
2016-10-16T01:08:02.076Z,9.37
2016-10-16T01:08:23.803Z,9.31
2016-10-16T01:08:45.516Z,9.24
2016-10-16T01:09:07.239Z,9.21
2016-10-16T01:09:28.957Z,9.24
2016-10-16T01:09:50.668Z,9.28
2016-10-16T01:10:12.384Z,9.28
2016-10-16T01:10:34.105Z,9.30
2016-10-16T01:10:55.826Z,9.27
2016-10-16T01:11:17.553Z,9.27
2016-10-16T01:11:39.267Z,9.28
2016-10-16T01:12:00.983Z,9.28
2016-10-16T01:12:22.785Z,9.28
2016-10-16T01:12:44.506Z,9.28
2016-10-16T01:13:06.220Z,9.27
2016-10-16T01:13:27.939Z,9.27
2016-10-16T01:13:49.652Z,9.27
2016-10-16T01:14:11.376Z,9.29
2016-10-16T01:14:33.092Z,9.30
2016-10-16T01:14:54.823Z,9.34
2016-10-16T01:15:16.540Z,9.44
2016-10-16T01:15:38.345Z,9.51
2016-10-16T01:16:00.070Z,9.54
2016-10-16T01:16:22.823Z,9.58
2016-10-16T01:16:44.512Z,9.52
2016-10-16T01:17:06.227Z,9.50
2016-10-16T01:17:27.945Z,9.45
2016-10-16T01:17:49.657Z,9.42
2016-10-16T01:18:11.455Z,9.40
2016-10-16T01:18:33.172Z,9.37
2016-10-16T01:18:54.888Z,9.34
2016-10-16T01:19:16.610Z,9.34
2016-10-16T01:19:38.394Z,9.34
2016-10-16T01:20:00.108Z,9.31
2016-10-16T01:20:21.822Z,9.34
2016-10-16T01:20:43.538Z,9.35
2016-10-16T01:21:05.367Z,9.37
2016-10-16T01:21:27.086Z,9.40
2016-10-16T01:21:48.805Z,9.44
2016-10-16T01:22:10.523Z,9.47
2016-10-16T01:22:32.330Z,9.46
2016-10-16T01:22:54.050Z,9.41
2016-10-16T01:23:15.769Z,9.40
2016-10-16T01:23:37.487Z,9.42
2016-10-16T01:23:59.296Z,9.42
2016-10-16T01:24:21.013Z,9.38
2016-10-16T01:24:42.737Z,9.35
2016-10-16T01:25:04.456Z,9.33
2016-10-16T01:25:26.175Z,9.33
2016-10-16T01:25:47.901Z,9.30
2016-10-16T01:26:09.646Z,9.25
2016-10-16T01:26:31.357Z,9.24
2016-10-16T01:26:53.093Z,9.27
2016-10-16T01:27:14.815Z,9.28
2016-10-16T01:27:36.536Z,9.28
2016-10-16T01:27:58.249Z,9.27
2016-10-16T01:28:19.977Z,9.28
2016-10-16T01:28:41.707Z,9.28
2016-10-16T01:29:03.432Z,9.24
2016-10-16T01:29:25.153Z,9.26
2016-10-16T01:29:46.869Z,9.29
2016-10-16T01:30:08.584Z,9.28
2016-10-16T01:30:30.304Z,9.28
2016-10-16T01:30:52.017Z,9.25
2016-10-16T01:31:13.735Z,9.27
2016-10-16T01:31:35.450Z,9.30
2016-10-16T01:31:57.166Z,9.33
2016-10-16T01:32:18.881Z,9.35
2016-10-16T01:32:40.667Z,9.38
2016-10-16T01:33:02.392Z,9.38
2016-10-16T01:33:24.105Z,9.36
2016-10-16T01:33:45.826Z,9.34
2016-10-16T01:34:07.593Z,9.33
2016-10-16T01:34:29.311Z,9.30
2016-10-16T01:34:51.038Z,9.30
2016-10-16T01:35:12.764Z,9.30
2016-10-16T01:35:34.484Z,9.33
2016-10-16T01:35:56.198Z,9.26
2016-10-16T01:36:17.907Z,9.27
2016-10-16T01:36:39.681Z,9.26
2016-10-16T01:37:01.428Z,9.26
2016-10-16T01:37:23.112Z,9.35
2016-10-16T01:37:44.829Z,9.41
2016-10-16T01:38:06.542Z,9.45
2016-10-16T01:38:28.258Z,9.43
2016-10-16T01:38:49.983Z,9.41
2016-10-16T01:39:11.777Z,9.43
2016-10-16T01:39:33.495Z,9.55
2016-10-16T01:39:55.210Z,9.56
2016-10-16T01:40:16.928Z,9.53
2016-10-16T01:40:38.653Z,9.48
2016-10-16T01:41:00.372Z,9.43
2016-10-16T01:41:22.090Z,9.41
2016-10-16T01:41:43.802Z,9.38
2016-10-16T01:42:05.652Z,9.38
2016-10-16T01:42:27.373Z,9.36
2016-10-16T01:42:49.093Z,9.35
2016-10-16T01:43:10.808Z,9.34
2016-10-16T01:43:32.525Z,9.30
2016-10-16T01:43:54.242Z,9.28
2016-10-16T01:44:15.982Z,9.30
2016-10-16T01:44:37.778Z,9.34
2016-10-16T01:44:59.497Z,9.37
2016-10-16T01:45:21.225Z,9.34
2016-10-16T01:45:42.937Z,9.29
2016-10-16T01:46:04.729Z,9.26
2016-10-16T01:46:26.442Z,9.24
2016-10-16T01:46:48.161Z,9.24
2016-10-16T01:47:09.886Z,9.24
2016-10-16T01:47:31.608Z,9.23
2016-10-16T01:47:53.336Z,9.23
2016-10-16T01:48:15.054Z,9.27
2016-10-16T01:48:36.778Z,9.30
2016-10-16T01:48:58.507Z,9.28
2016-10-16T01:49:20.223Z,9.28
2016-10-16T01:49:41.939Z,9.32
2016-10-16T01:50:03.657Z,9.35
2016-10-16T01:50:25.385Z,9.34
2016-10-16T01:50:48.099Z,9.33
2016-10-16T01:51:09.817Z,9.31
2016-10-16T01:51:31.541Z,9.30
2016-10-16T01:51:53.253Z,9.34
2016-10-16T01:52:14.972Z,9.37
2016-10-16T01:52:36.688Z,9.45
2016-10-16T01:52:58.406Z,9.54
2016-10-16T01:53:20.129Z,9.59
2016-10-16T01:53:41.843Z,9.63
2016-10-16T01:54:03.571Z,9.68
2016-10-16T01:54:25.290Z,9.68
2016-10-16T01:54:47.012Z,9.67
2016-10-16T01:55:08.728Z,9.58
2016-10-16T01:55:30.465Z,9.53
2016-10-16T01:55:52.179Z,9.50
2016-10-16T01:56:13.891Z,9.50
2016-10-16T01:56:35.611Z,9.54
2016-10-16T01:56:57.458Z,9.50
2016-10-16T01:57:19.170Z,9.42
2016-10-16T01:57:40.883Z,9.40
2016-10-16T01:58:02.603Z,9.28
2016-10-16T01:58:24.326Z,9.19
2016-10-16T01:58:46.048Z,9.16
2016-10-16T01:59:07.765Z,9.13
2016-10-16T01:59:29.481Z,9.05
2016-10-16T01:59:51.205Z,9.02
2016-10-16T02:00:12.929Z,9.00
2016-10-16T02:00:34.646Z,9.00
2016-10-16T02:00:56.354Z,8.99
2016-10-16T02:01:18.081Z,8.99
2016-10-16T02:01:39.803Z,9.03
2016-10-16T02:02:01.518Z,9.05
2016-10-16T02:02:23.237Z,9.09
2016-10-16T02:02:44.959Z,9.17
2016-10-16T02:03:06.678Z,9.27
2016-10-16T02:03:28.394Z,9.33
2016-10-16T02:03:50.113Z,9.33
2016-10-16T02:04:16.597Z,9.36
2016-10-16T02:04:38.320Z,9.40
2016-10-16T02:05:00.037Z,9.45
2016-10-16T02:05:21.754Z,9.44
2016-10-16T02:05:43.480Z,9.42
2016-10-16T02:06:05.204Z,9.46
2016-10-16T02:06:26.915Z,9.41
2016-10-16T02:06:48.638Z,9.29
2016-10-16T02:07:10.356Z,9.26
2016-10-16T02:07:32.074Z,9.24
2016-10-16T02:07:53.801Z,9.24
2016-10-16T02:08:15.521Z,9.21
2016-10-16T02:08:37.241Z,9.20
2016-10-16T02:08:58.954Z,9.17
2016-10-16T02:09:20.679Z,9.12
2016-10-16T02:09:42.399Z,9.10
2016-10-16T02:10:04.120Z,9.11
2016-10-16T02:10:25.849Z,9.16
2016-10-16T02:10:47.566Z,9.18
2016-10-16T02:11:09.281Z,9.19
2016-10-16T02:11:31.004Z,9.18
2016-10-16T02:11:52.721Z,9.16
2016-10-16T02:12:14.443Z,9.20
2016-10-16T02:12:36.165Z,9.27
2016-10-16T02:12:57.882Z,9.34
2016-10-16T02:13:19.601Z,9.35
2016-10-16T02:13:41.316Z,9.37
2016-10-16T02:14:03.035Z,9.35
2016-10-16T02:14:24.830Z,9.30
2016-10-16T02:14:46.551Z,9.27
2016-10-16T02:15:08.270Z,9.24
2016-10-16T02:15:29.995Z,9.23
2016-10-16T02:15:51.721Z,9.18
2016-10-16T02:16:13.438Z,9.18
2016-10-16T02:16:35.188Z,9.18
2016-10-16T02:16:56.909Z,9.20
2016-10-16T02:17:18.628Z,9.22
2016-10-16T02:17:40.345Z,9.29
2016-10-16T02:18:02.065Z,9.36
2016-10-16T02:18:23.785Z,9.41
2016-10-16T02:18:45.501Z,9.46
2016-10-16T02:19:07.219Z,9.53
2016-10-16T02:19:28.936Z,9.57
2016-10-16T02:19:50.654Z,9.60
2016-10-16T02:20:12.372Z,9.59
2016-10-16T02:20:34.172Z,9.59
2016-10-16T02:20:55.881Z,9.62
2016-10-16T02:21:17.601Z,9.66
2016-10-16T02:21:39.347Z,9.62
2016-10-16T02:22:01.067Z,9.60
2016-10-16T02:22:22.784Z,9.59
2016-10-16T02:22:44.522Z,9.54
2016-10-16T02:23:06.319Z,9.46
2016-10-16T02:23:28.050Z,9.44
2016-10-16T02:23:49.766Z,9.46
2016-10-16T02:24:11.484Z,9.43
2016-10-16T02:24:33.202Z,9.40
2016-10-16T02:24:54.920Z,9.37
2016-10-16T02:25:16.640Z,9.34
2016-10-16T02:25:38.375Z,9.30
2016-10-16T02:26:00.092Z,9.26
2016-10-16T02:26:21.809Z,9.26
2016-10-16T02:26:43.531Z,9.27
2016-10-16T02:27:05.316Z,9.32
2016-10-16T02:27:27.032Z,9.39
2016-10-16T02:27:48.749Z,9.46
2016-10-16T02:28:10.464Z,9.50
2016-10-16T02:28:32.183Z,9.51
2016-10-16T02:28:53.902Z,9.51
2016-10-16T02:29:15.618Z,9.46
2016-10-16T02:29:37.343Z,9.49
2016-10-16T02:29:59.192Z,9.52
2016-10-16T02:30:20.907Z,9.56
2016-10-16T02:30:42.624Z,9.55
2016-10-16T02:31:06.962Z,9.52
2016-10-16T02:31:28.806Z,9.50
2016-10-16T02:31:50.517Z,9.54
2016-10-16T02:32:12.237Z,9.54
2016-10-16T02:32:33.963Z,9.54
2016-10-16T02:32:55.767Z,9.53
2016-10-16T02:33:17.485Z,9.46
2016-10-16T02:33:39.199Z,9.34
2016-10-16T02:34:00.919Z,9.24
2016-10-16T02:34:49.126Z,9.15
2016-10-16T02:35:10.848Z,9.12
2016-10-16T02:35:32.561Z,9.10
2016-10-16T02:35:54.277Z,9.09
2016-10-16T02:36:15.993Z,9.08
2016-10-16T02:36:37.790Z,9.16
2016-10-16T02:36:59.504Z,9.26
2016-10-16T02:37:21.224Z,9.30
2016-10-16T02:37:42.964Z,9.33
2016-10-16T02:38:04.692Z,9.39
2016-10-16T02:38:26.399Z,9.35
2016-10-16T02:38:48.129Z,9.28
2016-10-16T02:39:09.851Z,9.23
2016-10-16T02:39:31.645Z,9.22
2016-10-16T02:39:53.362Z,9.21
2016-10-16T02:40:15.078Z,9.21
2016-10-16T02:40:36.796Z,9.25
2016-10-16T02:40:58.510Z,9.20
2016-10-16T02:41:20.224Z,9.18
2016-10-16T02:41:42.021Z,9.17
2016-10-16T02:42:03.741Z,9.15
2016-10-16T02:42:25.460Z,9.14
2016-10-16T02:42:47.177Z,9.12
2016-10-16T02:43:08.919Z,9.13
2016-10-16T02:43:30.636Z,9.12
2016-10-16T02:43:52.354Z,9.14
2016-10-16T02:44:14.148Z,9.12
2016-10-16T02:44:35.867Z,9.07
2016-10-16T02:44:57.583Z,9.04
2016-10-16T02:45:19.303Z,9.00
2016-10-16T02:45:41.015Z,9.04
2016-10-16T02:46:02.728Z,9.06
2016-10-16T02:46:24.449Z,9.05
2016-10-16T02:46:46.161Z,9.05
2016-10-16T02:47:07.879Z,9.05
2016-10-16T02:47:32.179Z,9.05
2016-10-16T02:47:53.896Z,9.03
2016-10-16T02:48:15.614Z,9.05
2016-10-16T02:48:37.333Z,9.03
2016-10-16T02:48:59.057Z,9.01
2016-10-16T02:49:20.777Z,8.98
2016-10-16T02:49:42.502Z,9.01
2016-10-16T02:50:04.224Z,8.97
2016-10-16T02:50:26.021Z,8.99
2016-10-16T02:50:47.741Z,8.98
2016-10-16T02:51:09.468Z,8.98
2016-10-16T02:51:31.186Z,9.02
2016-10-16T02:51:52.901Z,9.03
2016-10-16T02:52:14.618Z,9.03
2016-10-16T02:52:36.334Z,9.05
2016-10-16T02:52:58.053Z,9.04
2016-10-16T02:53:19.771Z,9.02
2016-10-16T02:53:46.257Z,9.06
2016-10-16T02:54:07.990Z,9.05
2016-10-16T02:54:29.785Z,9.02
2016-10-16T02:54:52.501Z,9.03
2016-10-16T02:55:14.216Z,9.01
2016-10-16T02:55:35.933Z,9.03
2016-10-16T02:55:57.761Z,9.04
2016-10-16T02:56:19.477Z,9.07
2016-10-16T02:56:41.194Z,9.12
2016-10-16T02:57:02.917Z,9.11
2016-10-16T02:57:24.713Z,9.13
2016-10-16T02:57:46.429Z,9.14
2016-10-16T02:58:08.142Z,9.15
2016-10-16T02:58:29.860Z,9.14
2016-10-16T02:58:51.653Z,9.12
2016-10-16T02:59:13.368Z,9.09
2016-10-16T02:59:35.083Z,9.06
2016-10-16T02:59:56.795Z,9.05
2016-10-16T03:00:18.516Z,9.00
2016-10-16T03:00:40.243Z,9.03
2016-10-16T03:01:01.964Z,9.07
2016-10-16T03:01:23.763Z,9.06
2016-10-16T03:01:45.482Z,9.02
2016-10-16T03:02:07.202Z,9.01
2016-10-16T03:02:28.917Z,8.99
2016-10-16T03:02:50.718Z,8.98
2016-10-16T03:03:12.440Z,8.97
2016-10-16T03:03:34.163Z,8.94
2016-10-16T03:03:55.872Z,8.95
2016-10-16T03:04:17.673Z,8.93
2016-10-16T03:04:39.392Z,8.91
2016-10-16T03:05:01.113Z,8.88
2016-10-16T03:05:22.837Z,8.88
2016-10-16T03:05:44.554Z,8.89
2016-10-16T03:06:06.269Z,8.85
2016-10-16T03:06:28.003Z,8.84
2016-10-16T03:06:49.721Z,8.86
2016-10-16T03:07:11.439Z,8.89
2016-10-16T03:07:33.155Z,8.88
2016-10-16T03:07:54.955Z,8.89
2016-10-16T03:08:16.670Z,8.91
2016-10-16T03:09:04.880Z,8.96
2016-10-16T03:09:26.603Z,8.92
2016-10-16T03:09:48.400Z,8.90
2016-10-16T03:10:10.119Z,8.92
2016-10-16T03:10:31.833Z,8.92
2016-10-16T03:10:53.545Z,8.90
2016-10-16T03:11:15.347Z,8.89
2016-10-16T03:11:37.061Z,8.86
2016-10-16T03:11:58.786Z,8.85
2016-10-16T03:12:20.508Z,8.83
2016-10-16T03:12:42.228Z,8.83
2016-10-16T03:13:03.937Z,8.86
2016-10-16T03:13:25.658Z,8.87
2016-10-16T03:13:47.372Z,8.89
2016-10-16T03:14:09.100Z,8.97
2016-10-16T03:14:30.822Z,9.09
2016-10-16T03:14:52.538Z,9.22
2016-10-16T03:15:14.344Z,9.26
2016-10-16T03:15:36.054Z,9.24
2016-10-16T03:15:57.780Z,9.16
2016-10-16T03:16:19.500Z,9.13
2016-10-16T03:16:41.306Z,9.19
2016-10-16T03:17:03.035Z,9.23
2016-10-16T03:17:24.750Z,9.27
2016-10-16T03:17:46.464Z,9.25
2016-10-16T03:18:08.193Z,9.29
2016-10-16T03:18:29.908Z,9.31
2016-10-16T03:18:51.627Z,9.34
2016-10-16T03:19:13.355Z,9.34
2016-10-16T03:19:35.082Z,9.27
2016-10-16T03:19:56.806Z,9.26
2016-10-16T03:20:18.528Z,9.27
2016-10-16T03:20:40.247Z,9.23
2016-10-16T03:21:01.968Z,9.11
2016-10-16T03:21:23.677Z,9.02
2016-10-16T03:21:45.396Z,9.00
2016-10-16T03:22:07.111Z,8.99
2016-10-16T03:22:28.834Z,8.97
2016-10-16T03:22:50.546Z,8.93
2016-10-16T03:23:12.261Z,8.88
2016-10-16T03:23:34.057Z,8.85
2016-10-16T03:23:55.780Z,8.90
2016-10-16T03:24:17.495Z,8.85
2016-10-16T03:24:39.208Z,8.79
2016-10-16T03:25:01.024Z,8.75
2016-10-16T03:25:22.748Z,8.75
2016-10-16T03:25:44.471Z,8.77
2016-10-16T03:26:06.197Z,8.75
2016-10-16T03:26:27.985Z,8.67
2016-10-16T03:26:49.699Z,8.64
2016-10-16T03:27:11.420Z,8.60
2016-10-16T03:27:33.137Z,8.57
2016-10-16T03:27:54.857Z,8.57
2016-10-16T03:28:16.576Z,8.55
2016-10-16T03:28:38.300Z,8.56
2016-10-16T03:29:00.016Z,8.55
2016-10-16T03:29:21.730Z,8.63
2016-10-16T03:29:43.531Z,8.60
2016-10-16T03:30:05.243Z,8.51
2016-10-16T03:30:26.965Z,8.42
2016-10-16T03:30:48.675Z,8.44
2016-10-16T03:31:10.397Z,8.39
2016-10-16T03:31:32.194Z,8.39
2016-10-16T03:31:53.922Z,8.42
2016-10-16T03:32:15.639Z,8.42
2016-10-16T03:32:37.352Z,8.48
2016-10-16T03:32:59.072Z,8.51
2016-10-16T03:33:20.791Z,8.52
2016-10-16T03:33:42.525Z,8.54
2016-10-16T03:34:04.242Z,8.58
2016-10-16T03:34:25.958Z,8.66
2016-10-16T03:34:47.674Z,8.80
2016-10-16T03:35:09.485Z,8.89
2016-10-16T03:35:31.193Z,8.93
2016-10-16T03:35:52.905Z,8.92
2016-10-16T03:36:14.618Z,8.89
2016-10-16T03:36:36.340Z,8.91
2016-10-16T03:36:58.128Z,8.92
2016-10-16T03:37:19.849Z,8.89
2016-10-16T03:37:41.564Z,8.94
2016-10-16T03:38:03.283Z,9.01
2016-10-16T03:38:24.998Z,9.04
2016-10-16T03:38:46.796Z,9.00
2016-10-16T03:39:08.519Z,8.96
2016-10-16T03:39:30.230Z,8.90
2016-10-16T03:39:51.944Z,8.86
2016-10-16T03:40:13.663Z,8.83
2016-10-16T03:40:35.617Z,8.80
2016-10-16T03:40:57.240Z,8.78
2016-10-16T03:41:18.955Z,8.78
2016-10-16T03:41:40.668Z,8.74
2016-10-16T03:42:02.388Z,8.71
2016-10-16T03:42:24.200Z,8.70
2016-10-16T03:42:45.913Z,8.71
2016-10-16T03:43:07.632Z,8.71
2016-10-16T03:43:29.348Z,8.71
2016-10-16T03:43:51.068Z,8.70
2016-10-16T03:44:12.775Z,8.72
2016-10-16T03:44:34.496Z,8.78
2016-10-16T03:44:56.210Z,8.92
2016-10-16T03:45:17.938Z,8.99
2016-10-16T03:45:39.656Z,9.01
2016-10-16T03:46:01.378Z,9.03
2016-10-16T03:46:23.099Z,9.06
2016-10-16T03:46:44.814Z,9.08
2016-10-16T03:47:06.536Z,9.09
2016-10-16T03:47:28.258Z,9.01
2016-10-16T03:47:49.974Z,8.88
2016-10-16T03:48:11.688Z,8.82
2016-10-16T03:48:33.499Z,8.79
2016-10-16T03:48:55.223Z,8.80
2016-10-16T03:49:16.944Z,8.74
2016-10-16T03:49:38.660Z,8.68
2016-10-16T03:50:00.377Z,8.63
2016-10-16T03:50:22.193Z,8.57
2016-10-16T03:50:43.912Z,8.53
2016-10-16T03:51:05.643Z,8.51
2016-10-16T03:51:27.371Z,8.53
2016-10-16T03:51:49.085Z,8.49
2016-10-16T03:52:10.796Z,8.47
2016-10-16T03:52:32.512Z,8.48
2016-10-16T03:52:54.313Z,8.51
2016-10-16T03:53:16.032Z,8.51
2016-10-16T03:53:37.750Z,8.53
2016-10-16T03:53:59.475Z,8.55
2016-10-16T03:54:21.197Z,8.55
2016-10-16T03:54:43.001Z,8.56
2016-10-16T03:55:04.717Z,8.58
2016-10-16T03:55:26.438Z,8.56
2016-10-16T03:55:48.157Z,8.56
2016-10-16T03:56:09.885Z,8.56
2016-10-16T03:56:31.633Z,8.53
2016-10-16T03:56:53.351Z,8.53
2016-10-16T03:57:15.071Z,8.53
2016-10-16T03:57:36.790Z,8.58
2016-10-16T03:57:58.520Z,8.59
2016-10-16T03:58:20.242Z,8.60
2016-10-16T03:58:41.958Z,8.59
2016-10-16T03:59:03.678Z,8.55
2016-10-16T03:59:25.394Z,8.51
2016-10-16T03:59:47.112Z,8.51
2016-10-16T04:00:08.833Z,8.52
2016-10-16T04:00:30.552Z,8.51
2016-10-16T04:00:52.275Z,8.48
2016-10-16T04:01:13.990Z,8.51
2016-10-16T04:01:35.710Z,8.56
2016-10-16T04:01:57.437Z,8.68
2016-10-16T04:02:19.228Z,8.79
2016-10-16T04:02:40.944Z,8.71
2016-10-16T04:03:02.677Z,8.53
2016-10-16T04:03:24.390Z,8.39
2016-10-16T04:03:46.187Z,8.26
2016-10-16T04:04:07.942Z,8.25
2016-10-16T04:04:29.658Z,8.22
2016-10-16T04:04:51.372Z,8.22
2016-10-16T04:05:13.152Z,8.33
2016-10-16T04:05:34.881Z,8.44
2016-10-16T04:05:56.600Z,8.53
2016-10-16T04:06:18.312Z,8.56
2016-10-16T04:06:40.095Z,8.60
2016-10-16T04:07:01.834Z,8.68
2016-10-16T04:07:23.553Z,8.67
2016-10-16T04:07:45.259Z,8.63
2016-10-16T04:08:07.055Z,8.63
2016-10-16T04:08:28.773Z,8.61
2016-10-16T04:08:50.503Z,8.62
2016-10-16T04:09:12.218Z,8.50
2016-10-16T04:09:33.937Z,8.41
2016-10-16T04:09:55.657Z,8.42
2016-10-16T04:10:17.371Z,8.56
2016-10-16T04:10:39.085Z,8.68
2016-10-16T04:11:00.901Z,8.73
2016-10-16T04:11:22.634Z,8.73
2016-10-16T04:11:44.342Z,8.77
2016-10-16T04:12:06.058Z,8.73
2016-10-16T04:12:27.852Z,8.74
2016-10-16T04:12:49.574Z,8.72
2016-10-16T04:13:11.290Z,8.66
2016-10-16T04:13:33.034Z,8.66
2016-10-16T04:13:54.847Z,8.55
2016-10-16T04:14:16.579Z,8.54
2016-10-16T04:14:38.300Z,8.54
2016-10-16T04:15:00.012Z,8.43
2016-10-16T04:15:21.729Z,8.36
2016-10-16T04:15:43.529Z,8.42
2016-10-16T04:16:05.251Z,8.44
2016-10-16T04:16:26.968Z,8.51
2016-10-16T04:16:48.685Z,8.44
2016-10-16T04:17:10.489Z,8.46
2016-10-16T04:17:32.207Z,8.45
2016-10-16T04:17:53.927Z,8.39
2016-10-16T04:18:15.646Z,8.31
2016-10-16T04:18:37.360Z,8.30
2016-10-16T04:18:59.079Z,8.27
2016-10-16T04:19:25.566Z,8.28
2016-10-16T04:19:47.292Z,8.32
2016-10-16T04:20:09.019Z,8.34
2016-10-16T04:20:30.728Z,8.43
2016-10-16T04:20:52.446Z,8.50
2016-10-16T04:21:14.192Z,8.53
2016-10-16T04:21:35.907Z,8.60
2016-10-16T04:21:57.626Z,8.59
2016-10-16T04:22:19.426Z,8.51
2016-10-16T04:22:41.150Z,8.45
2016-10-16T04:23:02.866Z,8.47
2016-10-16T04:23:24.580Z,8.46
2016-10-16T04:23:46.423Z,8.46
2016-10-16T04:24:08.156Z,8.54
2016-10-16T04:24:29.858Z,8.63
2016-10-16T04:24:51.569Z,8.64
2016-10-16T04:25:13.286Z,8.65
2016-10-16T04:25:35.008Z,8.71
2016-10-16T04:25:56.725Z,8.73
2016-10-16T04:26:18.441Z,8.79
2016-10-16T04:26:40.247Z,8.83
2016-10-16T04:27:01.966Z,8.85
2016-10-16T04:27:23.691Z,8.85
2016-10-16T04:27:45.400Z,8.89
2016-10-16T04:28:07.202Z,8.91
2016-10-16T04:28:28.915Z,8.80
2016-10-16T04:28:50.633Z,8.71
2016-10-16T04:29:12.350Z,8.64
2016-10-16T04:29:34.092Z,8.55
2016-10-16T04:29:55.815Z,8.50
2016-10-16T04:30:17.538Z,8.53
2016-10-16T04:30:39.253Z,8.56
2016-10-16T04:31:00.971Z,8.57
2016-10-16T04:31:22.769Z,8.57
2016-10-16T04:31:44.492Z,8.57
2016-10-16T04:32:06.207Z,8.63
2016-10-16T04:32:27.924Z,8.66
2016-10-16T04:32:49.717Z,8.71
2016-10-16T04:33:11.437Z,8.67
2016-10-16T04:33:33.151Z,8.64
2016-10-16T04:33:54.867Z,8.73
2016-10-16T04:34:16.659Z,8.76
2016-10-16T04:34:38.376Z,8.70
2016-10-16T04:35:00.089Z,8.69
2016-10-16T04:35:21.806Z,8.63
2016-10-16T04:35:43.531Z,8.64
2016-10-16T04:36:05.255Z,8.66
2016-10-16T04:36:26.968Z,8.66
2016-10-16T04:36:48.774Z,8.73
2016-10-16T04:37:10.490Z,8.74
2016-10-16T04:37:32.205Z,8.79
2016-10-16T04:37:53.925Z,8.88
2016-10-16T04:38:15.637Z,8.89
2016-10-16T04:38:37.352Z,8.89
2016-10-16T04:38:59.069Z,8.89
2016-10-16T04:39:20.787Z,8.88
2016-10-16T04:39:42.501Z,8.82
2016-10-16T04:40:04.219Z,8.79
2016-10-16T04:40:25.939Z,8.79
2016-10-16T04:40:47.740Z,8.82
2016-10-16T04:41:09.454Z,8.87
2016-10-16T04:41:31.168Z,8.82
2016-10-16T04:41:52.891Z,8.85
2016-10-16T04:42:14.621Z,8.86
2016-10-16T04:42:36.341Z,8.91
2016-10-16T04:42:58.049Z,8.93
2016-10-16T04:43:19.764Z,8.88
2016-10-16T04:43:41.480Z,8.82
2016-10-16T04:44:03.207Z,8.81
2016-10-16T04:44:24.925Z,8.78
2016-10-16T04:44:46.641Z,8.79
2016-10-16T04:45:08.355Z,8.78
2016-10-16T04:45:30.070Z,8.76
2016-10-16T04:45:51.786Z,8.80
2016-10-16T04:46:13.503Z,8.84
2016-10-16T04:46:35.216Z,8.89
2016-10-16T04:46:56.933Z,8.88
2016-10-16T04:47:18.662Z,8.88
2016-10-16T04:47:40.381Z,8.90
2016-10-16T04:48:02.102Z,8.89
2016-10-16T04:48:23.818Z,8.86
2016-10-16T04:48:45.610Z,8.76
2016-10-16T04:49:07.329Z,8.71
2016-10-16T04:49:29.042Z,8.73
2016-10-16T04:49:50.756Z,8.76
2016-10-16T04:50:12.472Z,8.78
2016-10-16T04:50:34.188Z,8.71